createdAt,value
2023-05-05T00:00:33.241Z,1426.00
2023-05-05T00:01:33.347Z,1395.00
2023-05-05T00:02:33.365Z,1346.00
2023-05-05T00:03:33.399Z,1336.00
2023-05-05T00:04:33.369Z,1362.00
2023-05-05T00:05:33.418Z,1405.00
2023-05-05T00:06:33.440Z,1429.00
2023-05-05T00:07:33.459Z,1472.00
2023-05-05T00:08:33.501Z,1459.00
2023-05-05T00:09:33.566Z,1492.00
2023-05-05T00:10:33.587Z,1508.00
2023-05-05T00:11:33.646Z,1477.00
2023-05-05T00:12:33.684Z,1486.00
2023-05-05T00:13:33.693Z,1475.00
2023-05-05T00:14:33.737Z,1496.00
2023-05-05T00:15:33.763Z,1526.00
2023-05-05T00:16:33.791Z,1534.00
2023-05-05T00:17:33.884Z,1485.00
2023-05-05T00:18:33.861Z,1480.00
2023-05-05T00:19:33.872Z,1507.00
2023-05-05T00:20:33.902Z,1525.00
2023-05-05T00:21:33.931Z,1512.00
2023-05-05T00:22:33.946Z,1522.00
2023-05-05T00:23:33.998Z,1500.00
2023-05-05T00:24:34.021Z,1507.00
2023-05-05T00:25:34.038Z,1488.00
2023-05-05T00:26:34.086Z,1475.00
2023-05-05T00:27:34.114Z,1492.00
2023-05-05T00:28:34.143Z,1515.00
2023-05-05T00:29:34.190Z,1538.00
2023-05-05T00:30:34.261Z,1537.00
2023-05-05T00:31:34.350Z,1496.00
2023-05-05T00:32:34.437Z,1483.00
2023-05-05T00:33:34.533Z,1493.00
2023-05-05T00:34:34.507Z,1481.00
2023-05-05T00:35:34.602Z,1412.00
2023-05-05T00:36:34.634Z,1467.00
2023-05-05T00:37:34.672Z,1445.00
2023-05-05T00:38:34.731Z,1420.00
2023-05-05T00:39:34.817Z,1401.00
2023-05-05T00:40:34.846Z,1389.00
2023-05-05T00:41:34.901Z,1364.00
2023-05-05T00:42:34.914Z,1393.00
2023-05-05T00:43:34.944Z,1387.00
2023-05-05T00:44:34.994Z,1358.00
2023-05-05T00:45:35.046Z,1340.00
2023-05-05T00:46:35.108Z,1333.00
2023-05-05T00:47:35.160Z,1290.00
2023-05-05T00:48:35.179Z,1264.00
2023-05-05T00:49:35.232Z,1236.00
2023-05-05T00:50:35.238Z,1210.00
2023-05-05T00:51:35.256Z,1144.00
2023-05-05T00:52:35.293Z,1092.00
2023-05-05T00:53:35.351Z,1053.00
2023-05-05T00:54:35.383Z,1001.00
2023-05-05T00:55:35.425Z,982.00
2023-05-05T00:56:35.437Z,967.00
2023-05-05T00:57:35.503Z,955.00
2023-05-05T00:58:35.533Z,965.00
2023-05-05T00:59:35.540Z,981.00
2023-05-05T01:00:35.578Z,1035.00
2023-05-05T01:01:35.638Z,1062.00
2023-05-05T01:02:35.704Z,1094.00
2023-05-05T01:03:35.750Z,1114.00
2023-05-05T01:04:35.728Z,1147.00
2023-05-05T01:05:35.751Z,1206.00
2023-05-05T01:06:35.780Z,1320.00
2023-05-05T01:07:35.814Z,1413.00
2023-05-05T01:08:35.832Z,1484.00
2023-05-05T01:09:35.885Z,1499.00
2023-05-05T01:10:35.902Z,1558.00
2023-05-05T01:11:35.917Z,1613.00
2023-05-05T01:12:36.029Z,1616.00
2023-05-05T01:13:35.997Z,1625.00
2023-05-05T01:14:36.021Z,1587.00
2023-05-05T01:15:36.046Z,1586.00
2023-05-05T01:16:36.124Z,1596.00
2023-05-05T01:17:36.115Z,1656.00
2023-05-05T01:18:36.116Z,1570.00
2023-05-05T01:19:36.153Z,1587.00
2023-05-05T01:20:36.206Z,1608.00
2023-05-05T01:21:36.213Z,1554.00
2023-05-05T01:22:36.438Z,1549.00
2023-05-05T01:23:36.246Z,1593.00
2023-05-05T01:24:36.250Z,1588.00
2023-05-05T01:25:36.283Z,1588.00
2023-05-05T01:26:36.340Z,1577.00
2023-05-05T01:27:36.364Z,1589.00
2023-05-05T01:28:36.368Z,1583.00
2023-05-05T01:29:36.407Z,1603.00
2023-05-05T01:30:36.425Z,1608.00
2023-05-05T01:31:36.543Z,1622.00
2023-05-05T01:32:36.492Z,1610.00
2023-05-05T01:33:36.486Z,1634.00
2023-05-05T01:34:36.542Z,1609.00
2023-05-05T01:35:36.592Z,1627.00
2023-05-05T01:36:36.620Z,1634.00
2023-05-05T01:37:36.617Z,1634.00
2023-05-05T01:38:36.663Z,1636.00
2023-05-05T01:39:36.706Z,1620.00
2023-05-05T01:40:36.707Z,1628.00
2023-05-05T01:41:36.745Z,1640.00
2023-05-05T01:42:36.861Z,1636.00
2023-05-05T01:43:36.769Z,1635.00
2023-05-05T01:44:36.789Z,1640.00
2023-05-05T01:45:36.895Z,1626.00
2023-05-05T01:46:36.960Z,1635.00
2023-05-05T01:47:36.868Z,1637.00
2023-05-05T01:48:36.883Z,1642.00
2023-05-05T01:49:36.901Z,1646.00
2023-05-05T01:50:36.934Z,1651.00
2023-05-05T01:51:36.941Z,1680.00
2023-05-05T01:52:36.971Z,1670.00
2023-05-05T01:53:36.991Z,1649.00
2023-05-05T01:54:37.013Z,1663.00
2023-05-05T01:55:37.026Z,1657.00
2023-05-05T01:56:37.033Z,1659.00
2023-05-05T01:57:37.079Z,1663.00
2023-05-05T01:58:37.068Z,1676.00
2023-05-05T01:59:37.085Z,1655.00
2023-05-05T02:00:37.106Z,1674.00
2023-05-05T02:01:37.178Z,1685.00
2023-05-05T02:02:37.202Z,1675.00
2023-05-05T02:03:37.177Z,1676.00
2023-05-05T02:04:37.187Z,1688.00
2023-05-05T02:05:37.182Z,1710.00
2023-05-05T02:06:37.220Z,1684.00
2023-05-05T02:07:37.236Z,1676.00
2023-05-05T02:08:37.261Z,1687.00
2023-05-05T02:09:37.277Z,1680.00
2023-05-05T02:10:37.302Z,1679.00
2023-05-05T02:11:37.314Z,1679.00
2023-05-05T02:12:37.382Z,1678.00
2023-05-05T02:13:37.406Z,1691.00
2023-05-05T02:14:37.356Z,1695.00
2023-05-05T02:15:37.413Z,1691.00
2023-05-05T02:16:37.418Z,1686.00
2023-05-05T02:17:37.457Z,1703.00
2023-05-05T02:18:37.511Z,1681.00
2023-05-05T02:19:37.558Z,1695.00
2023-05-05T02:20:37.557Z,1721.00
2023-05-05T02:21:37.612Z,1706.00
2023-05-05T02:22:37.623Z,1717.00
2023-05-05T02:23:37.648Z,1700.00
2023-05-05T02:24:37.656Z,1709.00
2023-05-05T02:25:37.689Z,1702.00
2023-05-05T02:26:37.712Z,1696.00
2023-05-05T02:27:37.722Z,1705.00
2023-05-05T02:28:37.815Z,1701.00
2023-05-05T02:29:37.753Z,1698.00
2023-05-05T02:30:37.772Z,1723.00
2023-05-05T02:31:37.859Z,1701.00
2023-05-05T02:32:37.908Z,1692.00
2023-05-05T02:33:37.949Z,1714.00
2023-05-05T02:34:38.015Z,1709.00
2023-05-05T02:35:38.084Z,1702.00
2023-05-05T02:36:38.127Z,1696.00
2023-05-05T02:37:38.197Z,1683.00
2023-05-05T02:38:38.249Z,1696.00
2023-05-05T02:39:38.296Z,1703.00
2023-05-05T02:40:38.368Z,1689.00
2023-05-05T02:41:38.416Z,1706.00
2023-05-05T02:42:38.418Z,1719.00
2023-05-05T02:43:38.417Z,1727.00
2023-05-05T02:44:38.558Z,1704.00
2023-05-05T02:45:38.448Z,1711.00
2023-05-05T02:46:38.556Z,1713.00
2023-05-05T02:47:38.570Z,1708.00
2023-05-05T02:48:38.547Z,1709.00
2023-05-05T02:49:38.645Z,1707.00
2023-05-05T02:50:38.666Z,1717.00
2023-05-05T02:51:38.672Z,1700.00
2023-05-05T02:52:38.720Z,1698.00
2023-05-05T02:53:38.697Z,1720.00
2023-05-05T02:54:38.717Z,1701.00
2023-05-05T02:55:38.735Z,1700.00
2023-05-05T02:56:38.754Z,1699.00
2023-05-05T02:57:38.831Z,1728.00
2023-05-05T02:58:38.804Z,1730.00
2023-05-05T02:59:38.809Z,1724.00
2023-05-05T03:00:38.820Z,1715.00
2023-05-05T03:01:38.999Z,1721.00
2023-05-05T03:02:38.979Z,1735.00
2023-05-05T03:03:39.103Z,1723.00
2023-05-05T03:04:38.865Z,1703.00
2023-05-05T03:05:38.883Z,1711.00
2023-05-05T03:06:38.901Z,1702.00
2023-05-05T03:07:38.939Z,1688.00
2023-05-05T03:08:38.932Z,1737.00
2023-05-05T03:09:38.947Z,1700.00
2023-05-05T03:10:38.953Z,1713.00
2023-05-05T03:11:38.982Z,1719.00
2023-05-05T03:12:39.033Z,1725.00
2023-05-05T03:13:38.992Z,1733.00
2023-05-05T03:14:39.020Z,1707.00
2023-05-05T03:15:39.006Z,1709.00
2023-05-05T03:16:39.094Z,1682.00
2023-05-05T03:17:39.087Z,1693.00
2023-05-05T03:18:39.069Z,1684.00
2023-05-05T03:19:39.074Z,1693.00
2023-05-05T03:20:39.078Z,1710.00
2023-05-05T03:21:39.090Z,1719.00
2023-05-05T03:22:39.119Z,1695.00
2023-05-05T03:23:39.140Z,1694.00
2023-05-05T03:24:39.173Z,1682.00
2023-05-05T03:25:39.167Z,1681.00
2023-05-05T03:26:39.224Z,1674.00
2023-05-05T03:27:39.276Z,1674.00
2023-05-05T03:28:39.320Z,1664.00
2023-05-05T03:29:41.028Z,1656.00
2023-05-05T03:30:39.439Z,1661.00
2023-05-05T03:31:39.580Z,1668.00
2023-05-05T03:32:39.620Z,1696.00
2023-05-05T03:33:39.618Z,1683.00
2023-05-05T03:34:39.659Z,1681.00
2023-05-05T03:35:39.732Z,1674.00
2023-05-05T03:36:39.779Z,1682.00
2023-05-05T03:37:39.876Z,1683.00
2023-05-05T03:38:39.889Z,1686.00
2023-05-05T03:39:39.898Z,1685.00
2023-05-05T03:40:44.186Z,1683.00
2023-05-05T03:41:39.926Z,1684.00
2023-05-05T03:42:39.910Z,1683.00
2023-05-05T03:43:39.896Z,1686.00
2023-05-05T03:44:39.884Z,1692.00
2023-05-05T03:45:39.903Z,1694.00
2023-05-05T03:46:39.870Z,1687.00
2023-05-05T03:47:39.902Z,1694.00
2023-05-05T03:48:39.867Z,1695.00
2023-05-05T03:49:39.868Z,1690.00
2023-05-05T03:50:39.845Z,1691.00
2023-05-05T03:51:39.837Z,1707.00
2023-05-05T03:52:39.839Z,1693.00
2023-05-05T03:53:39.806Z,1686.00
2023-05-05T03:54:39.818Z,1707.00
2023-05-05T03:55:39.806Z,1701.00
2023-05-05T03:56:39.786Z,1704.00
2023-05-05T03:57:39.813Z,1705.00
2023-05-05T03:58:39.806Z,1704.00
2023-05-05T03:59:39.809Z,1694.00
2023-05-05T04:00:39.827Z,1697.00
2023-05-05T04:01:39.895Z,1693.00
2023-05-05T04:02:39.890Z,1681.00
2023-05-05T04:03:39.942Z,1688.00
2023-05-05T04:04:39.919Z,1683.00
2023-05-05T04:05:39.994Z,1698.00
2023-05-05T04:06:40.057Z,1705.00
2023-05-05T04:07:40.094Z,1715.00
2023-05-05T04:08:40.133Z,1691.00
2023-05-05T04:09:40.154Z,1686.00
2023-05-05T04:10:40.153Z,1689.00
2023-05-05T04:11:40.221Z,1696.00
2023-05-05T04:12:40.285Z,1696.00
2023-05-05T04:13:40.277Z,1678.00
2023-05-05T04:14:40.284Z,1681.00
2023-05-05T04:15:40.291Z,1693.00
2023-05-05T04:16:40.309Z,1673.00
2023-05-05T04:17:40.347Z,1698.00
2023-05-05T04:18:40.340Z,1676.00
2023-05-05T04:19:40.362Z,1689.00
2023-05-05T04:20:40.409Z,1675.00
2023-05-05T04:21:40.424Z,1667.00
2023-05-05T04:22:40.459Z,1644.00
2023-05-05T04:23:40.520Z,1665.00
2023-05-05T04:24:40.565Z,1658.00
2023-05-05T04:25:40.634Z,1663.00
2023-05-05T04:26:40.701Z,1676.00
2023-05-05T04:27:40.717Z,1668.00
2023-05-05T04:28:40.754Z,1668.00
2023-05-05T04:29:40.751Z,1667.00
2023-05-05T04:30:40.769Z,1674.00
2023-05-05T04:31:40.864Z,1672.00
2023-05-05T04:32:40.866Z,1677.00
2023-05-05T04:33:40.837Z,1681.00
2023-05-05T04:34:40.816Z,1675.00
2023-05-05T04:35:40.838Z,1673.00
2023-05-05T04:36:40.864Z,1657.00
2023-05-05T04:37:40.923Z,1656.00
2023-05-05T04:38:41.012Z,1652.00
2023-05-05T04:39:41.044Z,1643.00
2023-05-05T04:40:41.110Z,1645.00
2023-05-05T04:41:41.143Z,1659.00
2023-05-05T04:42:41.164Z,1652.00
2023-05-05T04:43:41.135Z,1643.00
2023-05-05T04:44:41.134Z,1646.00
2023-05-05T04:45:41.156Z,1644.00
2023-05-05T04:46:41.210Z,1624.00
2023-05-05T04:47:41.189Z,1653.00
2023-05-05T04:48:41.151Z,1621.00
2023-05-05T04:49:41.159Z,1622.00
2023-05-05T04:50:41.164Z,1624.00
2023-05-05T04:51:41.182Z,1633.00
2023-05-05T04:52:41.235Z,1644.00
2023-05-05T04:53:41.311Z,1630.00
2023-05-05T04:54:41.361Z,1611.00
2023-05-05T04:55:41.397Z,1608.00
2023-05-05T04:56:41.416Z,1595.00
2023-05-05T04:57:41.423Z,1596.00
2023-05-05T04:58:41.437Z,1592.00
2023-05-05T04:59:41.444Z,1580.00
2023-05-05T05:00:41.466Z,1536.00
2023-05-05T05:01:41.528Z,1511.00
2023-05-05T05:02:41.578Z,1482.00
2023-05-05T05:03:41.720Z,1444.00
2023-05-05T05:04:41.629Z,1388.00
2023-05-05T05:05:41.682Z,1373.00
2023-05-05T05:06:41.734Z,1355.00
2023-05-05T05:07:41.758Z,1341.00
2023-05-05T05:08:41.768Z,1325.00
2023-05-05T05:09:41.785Z,1311.00
2023-05-05T05:10:41.815Z,1328.00
2023-05-05T05:11:41.822Z,1332.00
2023-05-05T05:12:41.843Z,1331.00
2023-05-05T05:13:41.821Z,1323.00
2023-05-05T05:14:41.884Z,1327.00
2023-05-05T05:15:41.877Z,1338.00
2023-05-05T05:16:41.938Z,1318.00
2023-05-05T05:17:41.942Z,1316.00
2023-05-05T05:18:41.958Z,1317.00
2023-05-05T05:19:41.997Z,1322.00
2023-05-05T05:20:42.028Z,1332.00
2023-05-05T05:21:42.067Z,1353.00
2023-05-05T05:22:42.085Z,1377.00
2023-05-05T05:23:42.132Z,1408.00
2023-05-05T05:24:42.182Z,1408.00
2023-05-05T05:25:42.186Z,1483.00
2023-05-05T05:26:42.204Z,1471.00
2023-05-05T05:27:42.224Z,1433.00
2023-05-05T05:28:42.249Z,1386.00
2023-05-05T05:29:42.324Z,1423.00
2023-05-05T05:30:42.362Z,1445.00
2023-05-05T05:31:42.495Z,1456.00
2023-05-05T05:32:42.467Z,1461.00
2023-05-05T05:33:42.589Z,1507.00
2023-05-05T05:34:42.577Z,1617.00
2023-05-05T05:35:42.637Z,1678.00
2023-05-05T05:36:42.677Z,1723.00
2023-05-05T05:37:42.715Z,1778.00
2023-05-05T05:38:42.736Z,1839.00
2023-05-05T05:39:43.756Z,1919.00
2023-05-05T05:40:42.736Z,2005.00
2023-05-05T05:41:42.799Z,2052.00
2023-05-05T05:42:42.841Z,2080.00
2023-05-05T05:43:43.061Z,2128.00
2023-05-05T05:44:42.888Z,2353.00
2023-05-05T05:45:43.046Z,2369.00
2023-05-05T05:46:43.051Z,2349.00
2023-05-05T05:47:42.983Z,2356.00
2023-05-05T05:48:43.012Z,2384.00
2023-05-05T05:49:43.034Z,2428.00
2023-05-05T05:50:43.074Z,2447.00
2023-05-05T05:51:43.124Z,2518.00
2023-05-05T05:52:43.161Z,2548.00
2023-05-05T05:53:43.208Z,2598.00
2023-05-05T05:54:43.224Z,2625.00
2023-05-05T05:55:43.256Z,2644.00
2023-05-05T05:56:43.292Z,2655.00
2023-05-05T05:57:43.299Z,2648.00
2023-05-05T05:58:43.322Z,2653.00
2023-05-05T05:59:43.341Z,2660.00
2023-05-05T06:00:43.357Z,2669.00
2023-05-05T06:01:43.357Z,2687.00
2023-05-05T06:02:43.459Z,2702.00
2023-05-05T06:03:43.672Z,2706.00
2023-05-05T06:04:43.500Z,2699.00
2023-05-05T06:05:43.535Z,2694.00
2023-05-05T06:06:43.589Z,2694.00
2023-05-05T06:07:43.569Z,2710.00
2023-05-05T06:08:43.578Z,2701.00
2023-05-05T06:09:43.654Z,2701.00
2023-05-05T06:10:43.685Z,2689.00
2023-05-05T06:11:43.698Z,2687.00
2023-05-05T06:12:43.736Z,2696.00
2023-05-05T06:13:43.733Z,2698.00
2023-05-05T06:14:43.742Z,2705.00
2023-05-05T06:15:43.782Z,2720.00
2023-05-05T06:16:43.746Z,2737.00
2023-05-05T06:17:43.795Z,2719.00
2023-05-05T06:18:44.089Z,2701.00
2023-05-05T06:19:43.759Z,2692.00
2023-05-05T06:20:43.746Z,2719.00
2023-05-05T06:21:43.769Z,2704.00
2023-05-05T06:22:43.758Z,2673.00
2023-05-05T06:23:43.799Z,2679.00
2023-05-05T06:24:43.795Z,2659.00
2023-05-05T06:25:43.813Z,2662.00
2023-05-05T06:26:43.831Z,2877.00
2023-05-05T06:27:43.824Z,2896.00
2023-05-05T06:28:43.845Z,2822.00
2023-05-05T06:29:43.847Z,2773.00
2023-05-05T06:30:43.861Z,2748.00
2023-05-05T06:31:44.121Z,2701.00
2023-05-05T06:32:43.946Z,2611.00
2023-05-05T06:33:43.939Z,2407.00
2023-05-05T06:34:43.971Z,2258.00
2023-05-05T06:35:43.992Z,2210.00
2023-05-05T06:36:44.063Z,2310.00
2023-05-05T06:37:44.069Z,2361.00
2023-05-05T06:38:44.111Z,2368.00
2023-05-05T06:39:44.155Z,2661.00
2023-05-05T06:40:44.183Z,2592.00
2023-05-05T06:41:44.233Z,2349.00
2023-05-05T06:42:44.283Z,2287.00
2023-05-05T06:43:44.600Z,2634.00
2023-05-05T06:44:44.372Z,2905.00
2023-05-05T06:45:44.431Z,2977.00
2023-05-05T06:46:44.621Z,2406.00
2023-05-05T06:47:44.612Z,2300.00
2023-05-05T06:48:44.575Z,2258.00
2023-05-05T06:49:44.642Z,2385.00
2023-05-05T06:50:44.683Z,2408.00
2023-05-05T06:51:44.736Z,2444.00
2023-05-05T06:52:44.771Z,2427.00
2023-05-05T06:53:45.105Z,2441.00
2023-05-05T06:54:44.903Z,2291.00
2023-05-05T06:55:44.900Z,2140.00
2023-05-05T06:56:44.935Z,2092.00
2023-05-05T06:57:44.985Z,2073.00
2023-05-05T06:58:45.025Z,2123.00
2023-05-05T06:59:45.073Z,2189.00
2023-05-05T07:00:45.184Z,2245.00
2023-05-05T07:01:45.165Z,2249.00
2023-05-05T07:02:45.260Z,2261.00
2023-05-05T07:03:45.326Z,2266.00
2023-05-05T07:04:45.283Z,2274.00
2023-05-05T07:05:45.271Z,2267.00
2023-05-05T07:06:45.285Z,2274.00
2023-05-05T07:07:45.281Z,2256.00
2023-05-05T07:08:45.645Z,2270.00
2023-05-05T07:09:45.288Z,2319.00
2023-05-05T07:10:45.334Z,2405.00
2023-05-05T07:11:45.595Z,2396.00
2023-05-05T07:12:45.420Z,2472.00
2023-05-05T07:13:45.406Z,2483.00
2023-05-05T07:14:45.438Z,2482.00
2023-05-05T07:15:45.461Z,2555.00
2023-05-05T07:16:45.564Z,2776.00
2023-05-05T07:17:45.536Z,3044.00
2023-05-05T07:18:45.531Z,3122.00
2023-05-05T07:19:45.599Z,2926.00
2023-05-05T07:20:45.550Z,2797.00
2023-05-05T07:21:45.559Z,2768.00
2023-05-05T07:22:45.842Z,2763.00
2023-05-05T07:23:45.573Z,2665.00
2023-05-05T07:24:45.591Z,2596.00
2023-05-05T07:25:45.626Z,2539.00
2023-05-05T07:26:45.740Z,2250.00
2023-05-05T07:27:45.722Z,1892.00
2023-05-05T07:28:46.102Z,1941.00
2023-05-05T07:29:45.787Z,1887.00
2023-05-05T07:30:45.972Z,1662.00
2023-05-05T07:31:46.178Z,1728.00
2023-05-05T07:32:45.962Z,1866.00
2023-05-05T07:33:45.866Z,1906.00
2023-05-05T07:34:45.897Z,1848.00
2023-05-05T07:35:45.907Z,1834.00
2023-05-05T07:36:46.129Z,1837.00
2023-05-05T07:37:45.918Z,1857.00
2023-05-05T07:38:45.922Z,1876.00
2023-05-05T07:39:45.918Z,1905.00
2023-05-05T07:40:45.912Z,1943.00
2023-05-05T07:41:45.950Z,1966.00
2023-05-05T07:42:46.066Z,1988.00
2023-05-05T07:43:46.094Z,1974.00
2023-05-05T07:44:46.104Z,1984.00
2023-05-05T07:45:46.127Z,1971.00
2023-05-05T07:46:46.129Z,2032.00
2023-05-05T07:47:46.215Z,2022.00
2023-05-05T07:48:46.606Z,2044.00
2023-05-05T07:49:46.180Z,2060.00
2023-05-05T07:50:46.283Z,2060.00
2023-05-05T07:51:46.302Z,2051.00
2023-05-05T07:52:49.950Z,2075.00
2023-05-05T07:53:47.341Z,2068.00
2023-05-05T07:54:46.338Z,2042.00
2023-05-05T07:55:46.349Z,2034.00
2023-05-05T07:56:46.345Z,2053.00
2023-05-05T07:57:46.332Z,2024.00
2023-05-05T07:58:46.378Z,2078.00
2023-05-05T07:59:46.331Z,2149.00
2023-05-05T08:00:46.329Z,2176.00
2023-05-05T08:01:46.628Z,2181.00
2023-05-05T08:02:46.372Z,2204.00
2023-05-05T08:03:46.375Z,2189.00
2023-05-05T08:04:46.309Z,2172.00
2023-05-05T08:05:46.282Z,2231.00
2023-05-05T08:06:46.279Z,2289.00
2023-05-05T08:07:46.257Z,2276.00
2023-05-05T08:08:46.236Z,2294.00
2023-05-05T08:09:46.638Z,2303.00
2023-05-05T08:10:46.248Z,2225.00
2023-05-05T08:11:46.231Z,2194.00
2023-05-05T08:12:46.240Z,2215.00
2023-05-05T08:13:46.308Z,1816.00
2023-05-05T08:14:46.431Z,1742.00
2023-05-05T08:15:46.403Z,1745.00
2023-05-05T08:16:46.358Z,1631.00
2023-05-05T08:17:46.639Z,1385.00
2023-05-05T08:18:46.400Z,1205.00
2023-05-05T08:19:46.651Z,982.00
2023-05-05T08:20:46.370Z,1026.00
2023-05-05T08:21:46.371Z,1044.00
2023-05-05T08:22:46.413Z,1132.00
2023-05-05T08:23:46.661Z,1213.00
2023-05-05T08:24:46.426Z,1386.00
2023-05-05T08:25:46.453Z,1414.00
2023-05-05T08:26:46.498Z,1458.00
2023-05-05T08:27:46.563Z,1541.00
2023-05-05T08:28:46.611Z,1527.00
2023-05-05T08:29:46.624Z,1568.00
2023-05-05T08:30:46.762Z,1559.00
2023-05-05T08:31:46.801Z,1598.00
2023-05-05T08:32:46.812Z,1638.00
2023-05-05T08:33:46.849Z,1538.00
2023-05-05T08:34:46.800Z,1234.00
2023-05-05T08:35:46.803Z,1248.00
2023-05-05T08:36:46.844Z,1262.00
2023-05-05T08:37:46.828Z,1329.00
2023-05-05T08:38:46.831Z,1447.00
2023-05-05T08:39:46.894Z,1512.00
2023-05-05T08:40:46.915Z,1477.00
2023-05-05T08:41:46.975Z,1469.00
2023-05-05T08:42:46.997Z,1366.00
2023-05-05T08:43:47.040Z,1405.00
2023-05-05T08:44:47.092Z,1352.00
2023-05-05T08:45:47.142Z,1328.00
2023-05-05T08:46:47.341Z,1301.00
2023-05-05T08:47:47.661Z,1352.00
2023-05-05T08:48:47.212Z,1347.00
2023-05-05T08:49:47.232Z,1403.00
2023-05-05T08:50:47.279Z,1501.00
2023-05-05T08:51:47.492Z,1571.00
2023-05-05T08:52:48.644Z,1636.00
2023-05-05T08:53:47.451Z,1587.00
2023-05-05T08:54:47.650Z,1609.00
2023-05-05T08:55:47.548Z,1652.00
2023-05-05T08:56:47.566Z,1622.00
2023-05-05T08:57:47.632Z,1567.00
2023-05-05T08:58:47.739Z,1619.00
2023-05-05T08:59:47.665Z,1588.00
2023-05-05T09:00:47.729Z,1626.00
2023-05-05T09:01:47.738Z,1615.00
2023-05-05T09:02:48.040Z,1530.00
2023-05-05T09:03:47.852Z,1665.00
2023-05-05T09:04:48.151Z,1614.00
2023-05-05T09:05:47.932Z,1614.00
2023-05-05T09:06:47.954Z,1645.00
2023-05-05T09:07:48.013Z,1728.00
2023-05-05T09:08:48.104Z,1757.00
2023-05-05T09:09:48.133Z,1761.00
2023-05-05T09:10:48.227Z,1764.00
2023-05-05T09:11:48.244Z,1807.00
2023-05-05T09:12:48.311Z,1883.00
2023-05-05T09:13:48.371Z,1909.00
2023-05-05T09:14:48.357Z,1982.00
2023-05-05T09:15:48.320Z,1953.00
2023-05-05T09:16:48.467Z,1929.00
2023-05-05T09:17:48.617Z,1972.00
2023-05-05T09:18:48.452Z,1981.00
2023-05-05T09:19:48.452Z,2010.00
2023-05-05T09:20:48.481Z,2104.00
2023-05-05T09:21:48.536Z,2113.00
2023-05-05T09:22:48.537Z,2132.00
2023-05-05T09:23:48.608Z,2199.00
2023-05-05T09:24:48.638Z,2217.00
2023-05-05T09:25:48.742Z,2205.00
2023-05-05T09:26:48.773Z,2119.00
2023-05-05T09:27:48.820Z,2063.00
2023-05-05T09:28:49.029Z,1977.00
2023-05-05T09:29:48.878Z,1863.00
2023-05-05T09:30:48.975Z,1749.00
2023-05-05T09:31:48.959Z,1768.00
2023-05-05T09:32:49.220Z,1281.00
2023-05-05T09:33:49.053Z,1382.00
2023-05-05T09:34:49.200Z,772.00
2023-05-05T09:35:49.092Z,563.00
2023-05-05T09:36:49.171Z,668.00
2023-05-05T09:37:49.153Z,821.00
2023-05-05T09:38:49.163Z,607.00
2023-05-05T09:39:49.244Z,580.00
2023-05-05T09:40:49.288Z,567.00
2023-05-05T09:41:49.284Z,560.00
2023-05-05T09:42:49.311Z,556.00
2023-05-05T09:43:49.325Z,574.00
2023-05-05T09:44:49.393Z,597.00
2023-05-05T09:45:49.418Z,651.00
2023-05-05T09:46:49.493Z,597.00
2023-05-05T09:47:49.569Z,596.00
2023-05-05T09:48:49.554Z,603.00
2023-05-05T09:49:49.535Z,602.00
2023-05-05T09:50:49.759Z,636.00
2023-05-05T09:51:49.625Z,640.00
2023-05-05T09:52:49.662Z,648.00
2023-05-05T09:53:49.764Z,665.00
2023-05-05T09:54:49.762Z,729.00
2023-05-05T09:55:49.783Z,743.00
2023-05-05T09:56:49.802Z,599.00
2023-05-05T09:57:49.794Z,588.00
2023-05-05T09:58:49.837Z,403.00
2023-05-05T09:59:49.857Z,579.00
2023-05-05T10:00:49.913Z,473.00
2023-05-05T10:01:49.927Z,505.00
2023-05-05T10:02:50.003Z,521.00
2023-05-05T10:03:49.983Z,500.00
2023-05-05T10:04:50.196Z,492.00
2023-05-05T10:05:50.099Z,625.00
2023-05-05T10:06:50.228Z,633.00
2023-05-05T10:07:50.201Z,735.00
2023-05-05T10:08:50.244Z,546.00
2023-05-05T10:09:50.303Z,500.00
2023-05-05T10:10:50.369Z,550.00
2023-05-05T10:11:50.443Z,584.00
2023-05-05T10:12:50.563Z,659.00
2023-05-05T10:13:50.521Z,633.00
2023-05-05T10:14:50.557Z,666.00
2023-05-05T10:15:50.604Z,649.00
2023-05-05T10:16:50.636Z,620.00
2023-05-05T10:18:02.193Z,720.00
2023-05-05T10:18:51.601Z,611.00
2023-05-05T10:19:50.602Z,606.00
2023-05-05T10:20:50.895Z,575.00
2023-05-05T10:21:50.702Z,589.00
2023-05-05T10:22:50.684Z,604.00
2023-05-05T10:23:50.593Z,636.00
2023-05-05T10:24:50.547Z,539.00
2023-05-05T10:25:50.553Z,566.00
2023-05-05T10:26:50.584Z,594.00
2023-05-05T10:27:50.540Z,595.00
2023-05-05T10:28:50.554Z,537.00
2023-05-05T10:29:50.532Z,504.00
2023-05-05T10:30:50.530Z,523.00
2023-05-05T10:31:50.550Z,553.00
2023-05-05T10:33:00.861Z,560.00
2023-05-05T10:33:51.593Z,561.00
2023-05-05T10:34:50.527Z,567.00
2023-05-05T10:35:50.494Z,592.00
2023-05-05T10:36:50.511Z,656.00
2023-05-05T10:37:50.502Z,965.00
2023-05-05T10:38:50.548Z,1133.00
2023-05-05T10:39:50.477Z,1111.00
2023-05-05T10:40:50.458Z,1216.00
2023-05-05T10:41:50.472Z,1195.00
2023-05-05T10:42:50.461Z,1426.00
2023-05-05T10:43:50.458Z,1455.00
2023-05-05T10:44:50.448Z,1640.00
2023-05-05T10:45:50.523Z,1718.00
2023-05-05T10:46:50.440Z,1801.00
2023-05-05T10:47:50.560Z,1879.00
2023-05-05T10:48:50.711Z,1972.00
2023-05-05T10:49:50.611Z,1931.00
2023-05-05T10:50:50.680Z,1766.00
2023-05-05T10:51:50.656Z,1850.00
2023-05-05T10:52:50.725Z,1873.00
2023-05-05T10:53:50.773Z,1836.00
2023-05-05T10:54:50.908Z,1787.00
2023-05-05T10:55:50.834Z,1736.00
2023-05-05T10:56:50.881Z,1753.00
2023-05-05T10:57:50.907Z,1700.00
2023-05-05T10:58:59.787Z,1813.00
2023-05-05T10:59:52.214Z,1816.00
2023-05-05T11:00:50.958Z,1826.00
2023-05-05T11:01:50.991Z,1858.00
2023-05-05T11:02:50.942Z,1883.00
2023-05-05T11:03:50.961Z,2000.00
2023-05-05T11:04:50.934Z,1966.00
2023-05-05T11:05:50.896Z,1979.00
2023-05-05T11:06:50.925Z,1991.00
2023-05-05T11:07:50.880Z,1930.00
2023-05-05T11:08:50.893Z,1835.00
2023-05-05T11:09:51.209Z,1847.00
2023-05-05T11:10:51.084Z,1845.00
2023-05-05T11:11:50.865Z,1769.00
2023-05-05T11:12:50.906Z,1682.00
2023-05-05T11:13:50.863Z,1780.00
2023-05-05T11:14:51.190Z,1720.00
2023-05-05T11:15:50.861Z,1760.00
2023-05-05T11:16:50.932Z,1895.00
2023-05-05T11:17:50.908Z,1947.00
2023-05-05T11:18:50.887Z,1964.00
2023-05-05T11:19:51.212Z,1977.00
2023-05-05T11:20:50.956Z,1606.00
2023-05-05T11:21:51.132Z,1617.00
2023-05-05T11:22:51.024Z,1547.00
2023-05-05T11:23:51.121Z,1456.00
2023-05-05T11:24:51.168Z,1519.00
2023-05-05T11:25:51.212Z,1424.00
2023-05-05T11:26:51.373Z,1426.00
2023-05-05T11:27:51.305Z,1359.00
2023-05-05T11:28:51.334Z,1384.00
2023-05-05T11:29:52.137Z,1332.00
2023-05-05T11:30:51.488Z,1333.00
2023-05-05T11:31:51.473Z,1126.00
2023-05-05T11:32:51.545Z,1041.00
2023-05-05T11:33:51.557Z,980.00
2023-05-05T11:34:51.562Z,1038.00
2023-05-05T11:35:51.545Z,1110.00
2023-05-05T11:36:51.528Z,1141.00
2023-05-05T11:37:51.521Z,1113.00
2023-05-05T11:38:51.524Z,1086.00
2023-05-05T11:39:51.509Z,1127.00
2023-05-05T11:40:51.532Z,1128.00
2023-05-05T11:41:51.548Z,1093.00
2023-05-05T11:42:51.546Z,1188.00
2023-05-05T11:43:51.576Z,1245.00
2023-05-05T11:44:51.628Z,1203.00
2023-05-05T11:45:51.693Z,1216.00
2023-05-05T11:46:51.738Z,1257.00
2023-05-05T11:47:51.808Z,1345.00
2023-05-05T11:48:51.814Z,1398.00
2023-05-05T11:49:51.832Z,1387.00
2023-05-05T11:50:51.903Z,1432.00
2023-05-05T11:51:51.939Z,1374.00
2023-05-05T11:52:51.990Z,1381.00
2023-05-05T11:53:52.021Z,1424.00
2023-05-05T11:54:52.080Z,1500.00
2023-05-05T11:55:52.104Z,1471.00
2023-05-05T11:56:52.124Z,1479.00
2023-05-05T11:57:52.142Z,1463.00
2023-05-05T11:58:52.207Z,1451.00
2023-05-05T11:59:52.163Z,1468.00
2023-05-05T12:00:52.166Z,1539.00
2023-05-05T12:01:52.195Z,1523.00
2023-05-05T12:02:52.285Z,1526.00
2023-05-05T12:03:52.466Z,1506.00
2023-05-05T12:04:52.322Z,1580.00
2023-05-05T12:05:52.244Z,1562.00
2023-05-05T12:06:52.284Z,1553.00
2023-05-05T12:07:52.280Z,1584.00